sensor_id;sensor_type;location;lat;lon;timestamp;P1;durP1;ratioP1;P2;durP2;ratioP2
12469;SDS011;36499;46.484;13.832;2023-05-07T00:01:50;4.20;;;2.33;;
12469;SDS011;36499;46.484;13.832;2023-05-07T00:04:18;3.50;;;3.17;;
12469;SDS011;36499;46.484;13.832;2023-05-07T00:06:45;5.70;;;3.10;;
12469;SDS011;36499;46.484;13.832;2023-05-07T00:09:14;4.40;;;2.60;;
12469;SDS011;36499;46.484;13.832;2023-05-07T00:11:41;3.40;;;3.10;;
12469;SDS011;36499;46.484;13.832;2023-05-07T00:14:08;4.20;;;3.80;;
12469;SDS011;36499;46.484;13.832;2023-05-07T00:16:35;4.83;;;3.40;;
12469;SDS011;36499;46.484;13.832;2023-05-07T00:19:03;5.23;;;2.70;;
12469;SDS011;36499;46.484;13.832;2023-05-07T00:21:30;4.90;;;3.80;;
12469;SDS011;36499;46.484;13.832;2023-05-07T00:23:57;3.90;;;3.30;;
12469;SDS011;36499;46.484;13.832;2023-05-07T00:26:25;5.03;;;3.70;;
12469;SDS011;36499;46.484;13.832;2023-05-07T00:28:52;4.93;;;3.90;;
12469;SDS011;36499;46.484;13.832;2023-05-07T00:31:19;6.10;;;5.50;;
12469;SDS011;36499;46.484;13.832;2023-05-07T00:33:47;3.83;;;3.40;;
12469;SDS011;36499;46.484;13.832;2023-05-07T00:36:14;3.63;;;3.33;;
12469;SDS011;36499;46.484;13.832;2023-05-07T00:38:40;3.50;;;3.20;;
12469;SDS011;36499;46.484;13.832;2023-05-07T00:41:07;4.00;;;3.60;;
12469;SDS011;36499;46.484;13.832;2023-05-07T00:43:36;5.13;;;3.70;;
12469;SDS011;36499;46.484;13.832;2023-05-07T00:46:03;7.73;;;4.73;;
12469;SDS011;36499;46.484;13.832;2023-05-07T00:48:30;12.70;;;6.23;;
12469;SDS011;36499;46.484;13.832;2023-05-07T00:50:58;8.83;;;4.73;;
12469;SDS011;36499;46.484;13.832;2023-05-07T00:53:25;9.97;;;5.77;;
12469;SDS011;36499;46.484;13.832;2023-05-07T00:55:52;5.93;;;4.13;;
12469;SDS011;36499;46.484;13.832;2023-05-07T00:58:20;4.60;;;3.77;;
12469;SDS011;36499;46.484;13.832;2023-05-07T01:00:49;5.57;;;4.10;;
12469;SDS011;36499;46.484;13.832;2023-05-07T01:03:16;7.10;;;4.30;;
12469;SDS011;36499;46.484;13.832;2023-05-07T01:05:43;3.97;;;3.57;;
12469;SDS011;36499;46.484;13.832;2023-05-07T01:08:15;4.67;;;3.30;;
12469;SDS011;36499;46.484;13.832;2023-05-07T01:10:44;5.93;;;3.30;;
12469;SDS011;36499;46.484;13.832;2023-05-07T01:13:12;4.70;;;3.67;;
12469;SDS011;36499;46.484;13.832;2023-05-07T01:15:41;3.70;;;3.40;;
12469;SDS011;36499;46.484;13.832;2023-05-07T01:18:10;4.57;;;3.73;;
12469;SDS011;36499;46.484;13.832;2023-05-07T01:20:37;5.53;;;4.33;;
12469;SDS011;36499;46.484;13.832;2023-05-07T01:23:06;4.30;;;3.87;;
12469;SDS011;36499;46.484;13.832;2023-05-07T01:25:34;4.33;;;3.47;;
12469;SDS011;36499;46.484;13.832;2023-05-07T01:28:02;6.00;;;3.60;;
12469;SDS011;36499;46.484;13.832;2023-05-07T01:30:29;5.53;;;3.70;;
12469;SDS011;36499;46.484;13.832;2023-05-07T01:32:57;4.60;;;3.10;;
12469;SDS011;36499;46.484;13.832;2023-05-07T01:35:34;3.43;;;3.13;;
12469;SDS011;36499;46.484;13.832;2023-05-07T01:38:09;3.70;;;3.30;;
12469;SDS011;36499;46.484;13.832;2023-05-07T01:40:36;4.40;;;3.30;;
12469;SDS011;36499;46.484;13.832;2023-05-07T01:43:03;3.87;;;3.20;;
12469;SDS011;36499;46.484;13.832;2023-05-07T01:45:31;4.33;;;3.90;;
12469;SDS011;36499;46.484;13.832;2023-05-07T01:48:01;4.20;;;3.80;;
12469;SDS011;36499;46.484;13.832;2023-05-07T01:50:29;4.40;;;4.00;;
12469;SDS011;36499;46.484;13.832;2023-05-07T01:52:58;8.50;;;4.50;;
12469;SDS011;36499;46.484;13.832;2023-05-07T01:55:27;5.10;;;4.60;;
12469;SDS011;36499;46.484;13.832;2023-05-07T01:57:54;5.80;;;4.50;;
12469;SDS011;36499;46.484;13.832;2023-05-07T02:00:21;4.93;;;4.43;;
12469;SDS011;36499;46.484;13.832;2023-05-07T02:02:49;7.07;;;4.60;;
12469;SDS011;36499;46.484;13.832;2023-05-07T02:05:17;7.47;;;4.60;;
12469;SDS011;36499;46.484;13.832;2023-05-07T02:07:45;4.50;;;4.10;;
12469;SDS011;36499;46.484;13.832;2023-05-07T02:10:12;4.43;;;3.80;;
12469;SDS011;36499;46.484;13.832;2023-05-07T02:12:40;4.40;;;4.00;;
12469;SDS011;36499;46.484;13.832;2023-05-07T02:15:08;4.37;;;3.97;;
12469;SDS011;36499;46.484;13.832;2023-05-07T02:17:39;4.40;;;3.93;;
12469;SDS011;36499;46.484;13.832;2023-05-07T02:20:25;4.17;;;3.50;;
12469;SDS011;36499;46.484;13.832;2023-05-07T02:22:52;4.70;;;4.23;;
12469;SDS011;36499;46.484;13.832;2023-05-07T02:25:19;5.60;;;4.10;;
12469;SDS011;36499;46.484;13.832;2023-05-07T02:27:47;4.57;;;3.83;;
12469;SDS011;36499;46.484;13.832;2023-05-07T02:30:15;4.83;;;4.33;;
12469;SDS011;36499;46.484;13.832;2023-05-07T02:32:42;7.37;;;3.70;;
12469;SDS011;36499;46.484;13.832;2023-05-07T02:35:09;4.93;;;3.93;;
12469;SDS011;36499;46.484;13.832;2023-05-07T02:37:36;6.70;;;4.70;;
12469;SDS011;36499;46.484;13.832;2023-05-07T02:40:04;6.43;;;4.17;;
12469;SDS011;36499;46.484;13.832;2023-05-07T02:42:32;4.70;;;4.17;;
12469;SDS011;36499;46.484;13.832;2023-05-07T02:45:01;3.97;;;3.67;;
12469;SDS011;36499;46.484;13.832;2023-05-07T02:47:28;5.53;;;4.20;;
12469;SDS011;36499;46.484;13.832;2023-05-07T02:49:55;5.03;;;4.20;;
12469;SDS011;36499;46.484;13.832;2023-05-07T02:52:22;7.73;;;4.37;;
12469;SDS011;36499;46.484;13.832;2023-05-07T02:54:49;4.43;;;3.87;;
12469;SDS011;36499;46.484;13.832;2023-05-07T02:57:18;5.43;;;4.70;;
12469;SDS011;36499;46.484;13.832;2023-05-07T02:59:45;4.17;;;3.70;;
12469;SDS011;36499;46.484;13.832;2023-05-07T03:02:13;4.87;;;4.10;;
12469;SDS011;36499;46.484;13.832;2023-05-07T03:04:40;4.50;;;4.00;;
12469;SDS011;36499;46.484;13.832;2023-05-07T03:07:07;4.30;;;3.90;;
12469;SDS011;36499;46.484;13.832;2023-05-07T03:09:34;4.57;;;4.07;;
12469;SDS011;36499;46.484;13.832;2023-05-07T03:12:01;4.83;;;4.43;;
12469;SDS011;36499;46.484;13.832;2023-05-07T03:14:29;7.57;;;4.50;;
12469;SDS011;36499;46.484;13.832;2023-05-07T03:16:56;5.17;;;4.67;;
12469;SDS011;36499;46.484;13.832;2023-05-07T03:19:24;6.10;;;4.57;;
12469;SDS011;36499;46.484;13.832;2023-05-07T03:21:51;9.53;;;4.50;;
12469;SDS011;36499;46.484;13.832;2023-05-07T03:24:18;4.70;;;4.20;;
12469;SDS011;36499;46.484;13.832;2023-05-07T03:26:45;4.97;;;4.10;;
12469;SDS011;36499;46.484;13.832;2023-05-07T03:29:12;3.93;;;3.57;;
12469;SDS011;36499;46.484;13.832;2023-05-07T03:31:39;4.17;;;3.73;;
12469;SDS011;36499;46.484;13.832;2023-05-07T03:34:06;5.50;;;3.83;;
12469;SDS011;36499;46.484;13.832;2023-05-07T03:36:35;4.50;;;3.40;;
12469;SDS011;36499;46.484;13.832;2023-05-07T03:39:02;4.97;;;3.40;;
12469;SDS011;36499;46.484;13.832;2023-05-07T03:41:29;3.67;;;3.37;;
12469;SDS011;36499;46.484;13.832;2023-05-07T03:43:56;4.40;;;4.00;;
12469;SDS011;36499;46.484;13.832;2023-05-07T03:46:23;6.60;;;3.70;;
12469;SDS011;36499;46.484;13.832;2023-05-07T03:48:51;3.53;;;3.23;;
12469;SDS011;36499;46.484;13.832;2023-05-07T03:51:18;3.57;;;3.27;;
12469;SDS011;36499;46.484;13.832;2023-05-07T03:53:46;3.87;;;3.20;;
12469;SDS011;36499;46.484;13.832;2023-05-07T03:56:14;4.87;;;3.20;;
12469;SDS011;36499;46.484;13.832;2023-05-07T03:58:41;6.80;;;2.97;;
12469;SDS011;36499;46.484;13.832;2023-05-07T04:01:08;3.27;;;2.97;;
12469;SDS011;36499;46.484;13.832;2023-05-07T04:03:35;4.43;;;3.17;;
12469;SDS011;36499;46.484;13.832;2023-05-07T04:06:02;9.33;;;4.63;;
12469;SDS011;36499;46.484;13.832;2023-05-07T04:08:29;10.27;;;5.70;;
12469;SDS011;36499;46.484;13.832;2023-05-07T04:10:58;6.80;;;4.30;;
12469;SDS011;36499;46.484;13.832;2023-05-07T04:13:25;4.70;;;3.47;;
12469;SDS011;36499;46.484;13.832;2023-05-07T04:15:53;5.67;;;4.30;;
12469;SDS011;36499;46.484;13.832;2023-05-07T04:18:21;3.90;;;3.40;;
12469;SDS011;36499;46.484;13.832;2023-05-07T04:20:48;7.67;;;3.67;;
12469;SDS011;36499;46.484;13.832;2023-05-07T04:23:16;3.70;;;3.40;;
12469;SDS011;36499;46.484;13.832;2023-05-07T04:25:43;4.10;;;3.70;;
12469;SDS011;36499;46.484;13.832;2023-05-07T04:28:11;3.50;;;3.20;;
12469;SDS011;36499;46.484;13.832;2023-05-07T04:30:39;5.90;;;4.60;;
12469;SDS011;36499;46.484;13.832;2023-05-07T04:33:06;5.80;;;4.43;;
12469;SDS011;36499;46.484;13.832;2023-05-07T04:35:33;6.40;;;4.10;;
12469;SDS011;36499;46.484;13.832;2023-05-07T04:38:01;3.73;;;3.40;;
12469;SDS011;36499;46.484;13.832;2023-05-07T04:40:28;5.33;;;3.40;;
12469;SDS011;36499;46.484;13.832;2023-05-07T04:42:56;6.73;;;3.40;;
12469;SDS011;36499;46.484;13.832;2023-05-07T04:45:24;3.47;;;3.17;;
12469;SDS011;36499;46.484;13.832;2023-05-07T04:47:51;3.50;;;3.20;;
12469;SDS011;36499;46.484;13.832;2023-05-07T04:50:18;5.10;;;3.23;;
12469;SDS011;36499;46.484;13.832;2023-05-07T04:52:45;5.10;;;3.10;;
12469;SDS011;36499;46.484;13.832;2023-05-07T04:55:12;3.90;;;3.50;;
12469;SDS011;36499;46.484;13.832;2023-05-07T04:57:39;5.03;;;3.37;;
12469;SDS011;36499;46.484;13.832;2023-05-07T05:00:07;4.70;;;3.70;;
12469;SDS011;36499;46.484;13.832;2023-05-07T05:02:36;4.27;;;3.60;;
12469;SDS011;36499;46.484;13.832;2023-05-07T05:05:03;4.47;;;3.53;;
12469;SDS011;36499;46.484;13.832;2023-05-07T05:07:31;4.00;;;3.10;;
12469;SDS011;36499;46.484;13.832;2023-05-07T05:09:59;4.03;;;3.10;;
12469;SDS011;36499;46.484;13.832;2023-05-07T05:12:26;3.73;;;3.23;;
12469;SDS011;36499;46.484;13.832;2023-05-07T05:14:53;3.57;;;3.07;;
12469;SDS011;36499;46.484;13.832;2023-05-07T05:17:20;3.77;;;3.37;;
12469;SDS011;36499;46.484;13.832;2023-05-07T05:19:48;3.30;;;3.00;;
12469;SDS011;36499;46.484;13.832;2023-05-07T05:22:16;2.87;;;2.67;;
12469;SDS011;36499;46.484;13.832;2023-05-07T05:24:43;3.07;;;2.80;;
12469;SDS011;36499;46.484;13.832;2023-05-07T05:27:10;5.00;;;3.23;;
12469;SDS011;36499;46.484;13.832;2023-05-07T05:29:37;3.60;;;3.30;;
12469;SDS011;36499;46.484;13.832;2023-05-07T05:32:04;3.80;;;3.50;;
12469;SDS011;36499;46.484;13.832;2023-05-07T05:34:31;4.10;;;3.70;;
12469;SDS011;36499;46.484;13.832;2023-05-07T05:36:59;3.73;;;3.30;;
12469;SDS011;36499;46.484;13.832;2023-05-07T05:39:27;3.30;;;3.00;;
12469;SDS011;36499;46.484;13.832;2023-05-07T05:41:54;3.30;;;3.00;;
12469;SDS011;36499;46.484;13.832;2023-05-07T05:44:21;7.57;;;3.40;;
12469;SDS011;36499;46.484;13.832;2023-05-07T05:46:48;4.37;;;3.97;;
12469;SDS011;36499;46.484;13.832;2023-05-07T05:49:15;5.80;;;3.33;;
12469;SDS011;36499;46.484;13.832;2023-05-07T05:51:42;3.90;;;3.30;;
12469;SDS011;36499;46.484;13.832;2023-05-07T05:54:11;3.63;;;2.90;;
12469;SDS011;36499;46.484;13.832;2023-05-07T05:56:38;2.80;;;2.60;;
12469;SDS011;36499;46.484;13.832;2023-05-07T05:59:05;2.93;;;2.60;;
12469;SDS011;36499;46.484;13.832;2023-05-07T06:01:32;2.70;;;2.30;;
12469;SDS011;36499;46.484;13.832;2023-05-07T06:03:59;2.60;;;2.40;;
12469;SDS011;36499;46.484;13.832;2023-05-07T06:06:26;2.50;;;2.30;;
12469;SDS011;36499;46.484;13.832;2023-05-07T06:08:53;2.40;;;2.20;;
12469;SDS011;36499;46.484;13.832;2023-05-07T06:11:22;2.90;;;2.50;;
12469;SDS011;36499;46.484;13.832;2023-05-07T06:13:50;2.80;;;2.60;;
12469;SDS011;36499;46.484;13.832;2023-05-07T06:16:17;2.83;;;2.63;;
12469;SDS011;36499;46.484;13.832;2023-05-07T06:18:44;2.60;;;2.40;;
12469;SDS011;36499;46.484;13.832;2023-05-07T06:21:11;2.80;;;2.60;;
12469;SDS011;36499;46.484;13.832;2023-05-07T06:23:39;2.60;;;2.40;;
12469;SDS011;36499;46.484;13.832;2023-05-07T06:26:06;2.60;;;2.40;;
12469;SDS011;36499;46.484;13.832;2023-05-07T06:28:35;2.80;;;2.50;;
12469;SDS011;36499;46.484;13.832;2023-05-07T06:31:12;2.47;;;2.20;;
12469;SDS011;36499;46.484;13.832;2023-05-07T06:33:40;2.80;;;2.60;;
12469;SDS011;36499;46.484;13.832;2023-05-07T06:36:07;2.33;;;2.17;;
12469;SDS011;36499;46.484;13.832;2023-05-07T06:38:35;4.40;;;2.00;;
12469;SDS011;36499;46.484;13.832;2023-05-07T06:41:02;2.30;;;2.10;;
12469;SDS011;36499;46.484;13.832;2023-05-07T06:43:29;2.57;;;2.30;;
12469;SDS011;36499;46.484;13.832;2023-05-07T06:45:57;4.00;;;2.40;;
12469;SDS011;36499;46.484;13.832;2023-05-07T06:48:24;2.73;;;2.53;;
12469;SDS011;36499;46.484;13.832;2023-05-07T06:50:52;2.37;;;2.17;;
12469;SDS011;36499;46.484;13.832;2023-05-07T06:53:20;2.63;;;2.27;;
12469;SDS011;36499;46.484;13.832;2023-05-07T06:55:47;2.93;;;2.37;;
12469;SDS011;36499;46.484;13.832;2023-05-07T06:58:14;2.30;;;2.10;;
12469;SDS011;36499;46.484;13.832;2023-05-07T07:00:41;2.83;;;2.20;;
12469;SDS011;36499;46.484;13.832;2023-05-07T07:03:10;2.50;;;2.30;;
12469;SDS011;36499;46.484;13.832;2023-05-07T07:05:37;2.87;;;2.40;;
12469;SDS011;36499;46.484;13.832;2023-05-07T07:08:06;2.30;;;2.10;;
12469;SDS011;36499;46.484;13.832;2023-05-07T07:10:33;2.10;;;1.90;;
12469;SDS011;36499;46.484;13.832;2023-05-07T07:13:01;3.80;;;2.30;;
12469;SDS011;36499;46.484;13.832;2023-05-07T07:15:28;2.50;;;2.30;;
12469;SDS011;36499;46.484;13.832;2023-05-07T07:17:55;4.50;;;2.33;;
12469;SDS011;36499;46.484;13.832;2023-05-07T07:20:23;2.50;;;2.30;;
12469;SDS011;36499;46.484;13.832;2023-05-07T07:22:50;6.60;;;2.60;;
12469;SDS011;36499;46.484;13.832;2023-05-07T07:25:17;2.73;;;2.50;;
12469;SDS011;36499;46.484;13.832;2023-05-07T07:27:44;4.57;;;2.60;;
12469;SDS011;36499;46.484;13.832;2023-05-07T07:30:11;3.10;;;2.80;;
12469;SDS011;36499;46.484;13.832;2023-05-07T07:32:39;2.30;;;2.10;;
12469;SDS011;36499;46.484;13.832;2023-05-07T07:35:06;2.67;;;2.33;;
12469;SDS011;36499;46.484;13.832;2023-05-07T07:37:36;3.67;;;2.20;;
12469;SDS011;36499;46.484;13.832;2023-05-07T07:40:03;2.23;;;2.03;;
12469;SDS011;36499;46.484;13.832;2023-05-07T07:42:32;2.40;;;2.20;;
12469;SDS011;36499;46.484;13.832;2023-05-07T07:44:59;3.20;;;2.37;;
12469;SDS011;36499;46.484;13.832;2023-05-07T07:47:26;2.57;;;2.37;;
12469;SDS011;36499;46.484;13.832;2023-05-07T07:49:53;2.40;;;2.20;;
12469;SDS011;36499;46.484;13.832;2023-05-07T07:52:20;2.30;;;1.97;;
12469;SDS011;36499;46.484;13.832;2023-05-07T07:54:48;1.90;;;1.80;;
12469;SDS011;36499;46.484;13.832;2023-05-07T07:57:16;2.13;;;1.93;;
12469;SDS011;36499;46.484;13.832;2023-05-07T07:59:43;2.00;;;1.90;;
12469;SDS011;36499;46.484;13.832;2023-05-07T08:02:10;2.30;;;2.10;;
12469;SDS011;36499;46.484;13.832;2023-05-07T08:04:37;1.93;;;1.80;;
12469;SDS011;36499;46.484;13.832;2023-05-07T08:07:04;4.13;;;1.90;;
12469;SDS011;36499;46.484;13.832;2023-05-07T08:09:31;2.20;;;1.90;;
12469;SDS011;36499;46.484;13.832;2023-05-07T08:11:59;2.83;;;2.00;;
12469;SDS011;36499;46.484;13.832;2023-05-07T08:14:27;6.73;;;2.07;;
12469;SDS011;36499;46.484;13.832;2023-05-07T08:16:54;8.97;;;2.40;;
12469;SDS011;36499;46.484;13.832;2023-05-07T08:19:21;2.13;;;1.93;;
12469;SDS011;36499;46.484;13.832;2023-05-07T08:21:48;4.30;;;2.03;;
12469;SDS011;36499;46.484;13.832;2023-05-07T08:24:16;2.27;;;2.00;;
12469;SDS011;36499;46.484;13.832;2023-05-07T08:26:44;2.23;;;2.00;;
12469;SDS011;36499;46.484;13.832;2023-05-07T08:29:12;4.97;;;2.10;;
12469;SDS011;36499;46.484;13.832;2023-05-07T08:31:39;5.20;;;2.10;;
12469;SDS011;36499;46.484;13.832;2023-05-07T08:34:07;2.77;;;2.17;;
12469;SDS011;36499;46.484;13.832;2023-05-07T08:36:35;2.73;;;2.23;;
12469;SDS011;36499;46.484;13.832;2023-05-07T08:39:02;3.07;;;2.03;;
12469;SDS011;36499;46.484;13.832;2023-05-07T08:41:29;2.13;;;1.90;;
12469;SDS011;36499;46.484;13.832;2023-05-07T08:43:58;2.80;;;2.23;;
12469;SDS011;36499;46.484;13.832;2023-05-07T08:46:30;4.40;;;2.17;;
12469;SDS011;36499;46.484;13.832;2023-05-07T08:48:58;3.93;;;2.50;;
12469;SDS011;36499;46.484;13.832;2023-05-07T08:51:25;2.17;;;2.03;;
12469;SDS011;36499;46.484;13.832;2023-05-07T08:53:53;3.53;;;2.07;;
12469;SDS011;36499;46.484;13.832;2023-05-07T08:56:20;4.70;;;2.20;;
12469;SDS011;36499;46.484;13.832;2023-05-07T08:58:47;2.33;;;2.13;;
12469;SDS011;36499;46.484;13.832;2023-05-07T09:01:15;3.53;;;2.10;;
12469;SDS011;36499;46.484;13.832;2023-05-07T09:03:45;3.37;;;2.30;;
12469;SDS011;36499;46.484;13.832;2023-05-07T09:06:13;2.50;;;2.30;;
12469;SDS011;36499;46.484;13.832;2023-05-07T09:08:40;3.73;;;2.53;;
12469;SDS011;36499;46.484;13.832;2023-05-07T09:11:07;3.60;;;2.50;;
12469;SDS011;36499;46.484;13.832;2023-05-07T09:13:35;3.00;;;2.70;;
12469;SDS011;36499;46.484;13.832;2023-05-07T09:16:09;3.80;;;3.00;;
12469;SDS011;36499;46.484;13.832;2023-05-07T09:18:40;3.13;;;2.80;;
12469;SDS011;36499;46.484;13.832;2023-05-07T09:21:10;3.80;;;2.70;;
12469;SDS011;36499;46.484;13.832;2023-05-07T09:23:41;3.20;;;2.90;;
12469;SDS011;36499;46.484;13.832;2023-05-07T09:26:08;4.87;;;2.90;;
12469;SDS011;36499;46.484;13.832;2023-05-07T09:28:38;2.87;;;2.67;;
12469;SDS011;36499;46.484;13.832;2023-05-07T09:31:06;2.87;;;2.57;;
12469;SDS011;36499;46.484;13.832;2023-05-07T09:33:33;3.17;;;2.87;;
12469;SDS011;36499;46.484;13.832;2023-05-07T09:36:04;3.00;;;2.80;;
12469;SDS011;36499;46.484;13.832;2023-05-07T09:38:34;3.47;;;2.90;;
12469;SDS011;36499;46.484;13.832;2023-05-07T09:41:03;4.53;;;3.03;;
12469;SDS011;36499;46.484;13.832;2023-05-07T09:43:32;4.33;;;3.13;;
12469;SDS011;36499;46.484;13.832;2023-05-07T09:46:11;3.60;;;3.30;;
12469;SDS011;36499;46.484;13.832;2023-05-07T09:48:41;4.57;;;3.10;;
12469;SDS011;36499;46.484;13.832;2023-05-07T09:51:13;4.47;;;3.17;;
12469;SDS011;36499;46.484;13.832;2023-05-07T09:53:57;5.37;;;2.90;;
12469;SDS011;36499;46.484;13.832;2023-05-07T09:56:27;4.53;;;3.47;;
12469;SDS011;36499;46.484;13.832;2023-05-07T09:58:56;5.47;;;4.63;;
12469;SDS011;36499;46.484;13.832;2023-05-07T10:53:47;4.37;;;3.30;;
12469;SDS011;36499;46.484;13.832;2023-05-07T10:56:24;3.50;;;3.20;;
12469;SDS011;36499;46.484;13.832;2023-05-07T10:58:53;4.10;;;3.30;;
12469;SDS011;36499;46.484;13.832;2023-05-07T11:04:20;3.27;;;2.97;;
12469;SDS011;36499;46.484;13.832;2023-05-07T11:07:11;3.03;;;2.77;;
12469;SDS011;36499;46.484;13.832;2023-05-07T11:12:50;4.73;;;4.30;;
12469;SDS011;36499;46.484;13.832;2023-05-07T11:15:38;6.57;;;3.80;;
12469;SDS011;36499;46.484;13.832;2023-05-07T11:18:11;4.10;;;3.70;;
12469;SDS011;36499;46.484;13.832;2023-05-07T11:20:46;7.67;;;3.87;;
12469;SDS011;36499;46.484;13.832;2023-05-07T11:26:25;8.93;;;4.13;;
12469;SDS011;36499;46.484;13.832;2023-05-07T11:32:34;16.90;;;8.53;;
12469;SDS011;36499;46.484;13.832;2023-05-07T11:35:02;5.60;;;3.60;;
12469;SDS011;36499;46.484;13.832;2023-05-07T11:37:30;7.27;;;5.23;;
12469;SDS011;36499;46.484;13.832;2023-05-07T11:40:05;7.27;;;3.80;;
12469;SDS011;36499;46.484;13.832;2023-05-07T11:42:36;5.37;;;4.13;;
12469;SDS011;36499;46.484;13.832;2023-05-07T11:45:05;6.33;;;3.77;;
12469;SDS011;36499;46.484;13.832;2023-05-07T11:47:33;5.33;;;3.53;;
12469;SDS011;36499;46.484;13.832;2023-05-07T11:50:02;4.13;;;3.33;;
12469;SDS011;36499;46.484;13.832;2023-05-07T11:52:32;4.77;;;3.13;;
12469;SDS011;36499;46.484;13.832;2023-05-07T11:55:01;3.47;;;3.07;;
12469;SDS011;36499;46.484;13.832;2023-05-07T11:57:32;3.23;;;2.93;;
12469;SDS011;36499;46.484;13.832;2023-05-07T12:00:00;5.03;;;2.93;;
12469;SDS011;36499;46.484;13.832;2023-05-07T12:02:30;3.33;;;3.03;;
12469;SDS011;36499;46.484;13.832;2023-05-07T12:04:57;3.77;;;3.10;;
12469;SDS011;36499;46.484;13.832;2023-05-07T12:07:27;6.20;;;3.70;;
12469;SDS011;36499;46.484;13.832;2023-05-07T12:09:54;4.50;;;3.73;;
12469;SDS011;36499;46.484;13.832;2023-05-07T12:12:21;3.60;;;3.30;;
12469;SDS011;36499;46.484;13.832;2023-05-07T12:14:50;4.33;;;3.47;;
12469;SDS011;36499;46.484;13.832;2023-05-07T12:17:18;6.03;;;4.70;;
12469;SDS011;36499;46.484;13.832;2023-05-07T12:19:45;5.93;;;3.27;;
12469;SDS011;36499;46.484;13.832;2023-05-07T12:22:13;4.60;;;3.03;;
12469;SDS011;36499;46.484;13.832;2023-05-07T12:24:44;3.00;;;2.70;;
12469;SDS011;36499;46.484;13.832;2023-05-07T12:27:12;5.20;;;3.17;;
12469;SDS011;36499;46.484;13.832;2023-05-07T12:29:40;3.23;;;2.93;;
12469;SDS011;36499;46.484;13.832;2023-05-07T12:32:14;3.60;;;3.30;;
12469;SDS011;36499;46.484;13.832;2023-05-07T12:34:42;3.77;;;2.93;;
12469;SDS011;36499;46.484;13.832;2023-05-07T12:37:09;3.87;;;3.27;;
12469;SDS011;36499;46.484;13.832;2023-05-07T12:39:37;3.50;;;3.20;;
12469;SDS011;36499;46.484;13.832;2023-05-07T12:42:10;4.67;;;3.40;;
12469;SDS011;36499;46.484;13.832;2023-05-07T12:44:43;3.90;;;3.20;;
12469;SDS011;36499;46.484;13.832;2023-05-07T12:47:14;3.70;;;3.40;;
12469;SDS011;36499;46.484;13.832;2023-05-07T12:49:45;6.10;;;3.17;;
12469;SDS011;36499;46.484;13.832;2023-05-07T12:52:13;3.80;;;3.50;;
12469;SDS011;36499;46.484;13.832;2023-05-07T12:54:40;4.27;;;3.53;;
12469;SDS011;36499;46.484;13.832;2023-05-07T12:57:08;5.60;;;3.07;;
12469;SDS011;36499;46.484;13.832;2023-05-07T12:59:36;5.17;;;2.93;;
12469;SDS011;36499;46.484;13.832;2023-05-07T13:02:05;6.80;;;4.23;;
12469;SDS011;36499;46.484;13.832;2023-05-07T13:04:34;3.50;;;3.17;;
12469;SDS011;36499;46.484;13.832;2023-05-07T13:07:01;4.17;;;3.63;;
12469;SDS011;36499;46.484;13.832;2023-05-07T13:09:29;3.97;;;3.20;;
12469;SDS011;36499;46.484;13.832;2023-05-07T13:11:57;3.40;;;3.10;;
12469;SDS011;36499;46.484;13.832;2023-05-07T13:14:26;3.43;;;2.93;;
12469;SDS011;36499;46.484;13.832;2023-05-07T13:16:53;3.87;;;3.37;;
12469;SDS011;36499;46.484;13.832;2023-05-07T13:19:20;3.40;;;3.10;;
12469;SDS011;36499;46.484;13.832;2023-05-07T13:21:48;4.10;;;3.23;;
12469;SDS011;36499;46.484;13.832;2023-05-07T13:24:15;5.90;;;4.97;;
12469;SDS011;36499;46.484;13.832;2023-05-07T13:26:42;3.97;;;3.37;;
12469;SDS011;36499;46.484;13.832;2023-05-07T13:29:09;5.17;;;3.00;;
12469;SDS011;36499;46.484;13.832;2023-05-07T13:31:36;5.50;;;3.00;;
12469;SDS011;36499;46.484;13.832;2023-05-07T13:34:07;7.23;;;3.13;;
12469;SDS011;36499;46.484;13.832;2023-05-07T13:36:34;5.80;;;3.33;;
12469;SDS011;36499;46.484;13.832;2023-05-07T13:39:03;4.13;;;3.40;;
12469;SDS011;36499;46.484;13.832;2023-05-07T13:41:31;3.40;;;3.10;;
12469;SDS011;36499;46.484;13.832;2023-05-07T13:43:58;4.83;;;3.50;;
12469;SDS011;36499;46.484;13.832;2023-05-07T13:46:25;4.70;;;2.80;;
12469;SDS011;36499;46.484;13.832;2023-05-07T13:48:52;5.43;;;2.60;;
12469;SDS011;36499;46.484;13.832;2023-05-07T13:51:19;2.70;;;2.50;;
12469;SDS011;36499;46.484;13.832;2023-05-07T13:53:47;7.73;;;2.47;;
12469;SDS011;36499;46.484;13.832;2023-05-07T13:56:15;5.37;;;2.50;;
12469;SDS011;36499;46.484;13.832;2023-05-07T13:58:42;2.67;;;2.40;;
12469;SDS011;36499;46.484;13.832;2023-05-07T14:01:09;3.17;;;2.80;;
12469;SDS011;36499;46.484;13.832;2023-05-07T14:03:36;4.93;;;2.50;;
12469;SDS011;36499;46.484;13.832;2023-05-07T14:06:04;3.63;;;2.47;;
12469;SDS011;36499;46.484;13.832;2023-05-07T14:08:32;2.40;;;2.20;;
12469;SDS011;36499;46.484;13.832;2023-05-07T14:10:59;4.13;;;2.43;;
12469;SDS011;36499;46.484;13.832;2023-05-07T14:13:27;2.30;;;2.10;;
12469;SDS011;36499;46.484;13.832;2023-05-07T14:15:55;6.17;;;2.50;;
12469;SDS011;36499;46.484;13.832;2023-05-07T14:18:22;2.93;;;2.43;;
12469;SDS011;36499;46.484;13.832;2023-05-07T14:20:50;5.20;;;2.40;;
12469;SDS011;36499;46.484;13.832;2023-05-07T14:23:17;2.53;;;2.33;;
12469;SDS011;36499;46.484;13.832;2023-05-07T14:25:47;2.87;;;2.40;;
12469;SDS011;36499;46.484;13.832;2023-05-07T14:28:14;3.30;;;2.63;;
12469;SDS011;36499;46.484;13.832;2023-05-07T14:30:42;3.37;;;2.57;;
12469;SDS011;36499;46.484;13.832;2023-05-07T14:33:09;5.67;;;2.40;;
12469;SDS011;36499;46.484;13.832;2023-05-07T14:35:36;2.80;;;2.60;;
12469;SDS011;36499;46.484;13.832;2023-05-07T14:38:03;4.53;;;2.43;;
12469;SDS011;36499;46.484;13.832;2023-05-07T14:40:30;2.80;;;2.53;;
12469;SDS011;36499;46.484;13.832;2023-05-07T14:42:57;3.50;;;2.60;;
12469;SDS011;36499;46.484;13.832;2023-05-07T14:45:25;2.47;;;2.27;;
12469;SDS011;36499;46.484;13.832;2023-05-07T14:47:53;2.30;;;2.10;;
12469;SDS011;36499;46.484;13.832;2023-05-07T14:50:20;2.97;;;2.40;;
12469;SDS011;36499;46.484;13.832;2023-05-07T14:52:47;3.67;;;2.70;;
12469;SDS011;36499;46.484;13.832;2023-05-07T14:55:15;5.33;;;2.37;;
12469;SDS011;36499;46.484;13.832;2023-05-07T14:57:42;2.83;;;2.00;;
12469;SDS011;36499;46.484;13.832;2023-05-07T15:00:09;5.03;;;2.23;;
12469;SDS011;36499;46.484;13.832;2023-05-07T15:02:38;2.37;;;2.10;;
12469;SDS011;36499;46.484;13.832;2023-05-07T15:05:07;3.53;;;2.20;;
12469;SDS011;36499;46.484;13.832;2023-05-07T15:07:34;2.50;;;2.30;;
12469;SDS011;36499;46.484;13.832;2023-05-07T15:10:01;3.40;;;2.20;;
12469;SDS011;36499;46.484;13.832;2023-05-07T15:12:28;3.67;;;2.43;;
12469;SDS011;36499;46.484;13.832;2023-05-07T15:14:55;3.57;;;2.30;;
12469;SDS011;36499;46.484;13.832;2023-05-07T15:17:22;2.50;;;2.30;;
12469;SDS011;36499;46.484;13.832;2023-05-07T15:19:49;2.43;;;2.13;;
12469;SDS011;36499;46.484;13.832;2023-05-07T15:22:18;2.60;;;2.40;;
12469;SDS011;36499;46.484;13.832;2023-05-07T15:24:46;3.10;;;2.37;;
12469;SDS011;36499;46.484;13.832;2023-05-07T15:27:13;5.40;;;2.17;;
12469;SDS011;36499;46.484;13.832;2023-05-07T15:29:41;4.17;;;3.03;;
12469;SDS011;36499;46.484;13.832;2023-05-07T15:32:09;7.83;;;4.63;;
12469;SDS011;36499;46.484;13.832;2023-05-07T15:34:36;7.70;;;4.10;;
12469;SDS011;36499;46.484;13.832;2023-05-07T15:37:03;4.87;;;3.43;;
12469;SDS011;36499;46.484;13.832;2023-05-07T15:39:31;5.13;;;3.53;;
12469;SDS011;36499;46.484;13.832;2023-05-07T15:41:58;9.03;;;4.77;;
12469;SDS011;36499;46.484;13.832;2023-05-07T15:44:26;5.33;;;3.27;;